»·PEaware :: N4D KSMX-KONT

N4D :: KSMX-KONT

FLIGHT INFORMATION

Flight Status: Arrived
Operator: Privately registered:
United States
More flights under this callsign
Pilot: Alec D. (17934)
Aircraft: BEECH AIRCRAFT SUPER KING AIR COMMUTER
(BE20)
More flights by this aircraft type
Origin: KSMX Santa Maria Pub/Capt Hancock
United States
Destination: KONT Ontario Intl
United States
More flights between these airports :: More routes between these airports
Route: +RZS V386 FIM V186 PDZ
File this flight plan on PilotEdge
Remarks:
Altitude:
(Current/Filed)
11,000ft
Speed:
(Current/Filed)
265kts
Departed: 25-Sep-18 11:19 AM
Arrived: 25-Sep-18 12:12 PM
Distance/Time
Traveled:
150nm/0:53
Distance/Time
To Go:
Arrived

Flight Plot

Page will automatically refresh every two minutes.

Flight plan parsing failed; only flown route is shown


Map Options




Map Legend


Flown Route
Filed Route
Departure Airport
Arrival Airport
Navaid (VOR, NDB)
Fix

Horizontal Profiles

Position Reports

Time Latitude Longitude Heading Altitude Ground
Speed
25-Sep-18 10:53 34.891428 -120.453595 0 264ft 0kts
25-Sep-18 10:54 34.891428 -120.453595 0 264ft 0kts
25-Sep-18 10:55 34.891428 -120.453595 0 264ft 0kts
25-Sep-18 10:56 34.891428 -120.453595 0 264ft 0kts
25-Sep-18 10:57 34.891428 -120.453595 0 264ft 0kts
25-Sep-18 10:58 34.891428 -120.453595 0 264ft 0kts
25-Sep-18 10:59 34.891428 -120.453595 0 264ft 0kts
25-Sep-18 11:00 34.891428 -120.453595 0 264ft 0kts
25-Sep-18 11:01 34.891428 -120.453595 0 264ft 0kts
25-Sep-18 11:02 34.891428 -120.453595 0 264ft 0kts
25-Sep-18 11:03 34.891428 -120.453595 0 264ft 0kts
25-Sep-18 11:04 34.891428 -120.453595 0 264ft 0kts
25-Sep-18 11:05 34.891428 -120.453595 0 264ft 0kts
25-Sep-18 11:06 34.891428 -120.453595 0 264ft 0kts
25-Sep-18 11:07 34.891428 -120.453595 0 264ft 0kts
25-Sep-18 11:08 34.891428 -120.453595 0 264ft 0kts
25-Sep-18 11:09 34.891428 -120.453595 0 264ft 0kts
25-Sep-18 11:10 34.891428 -120.453595 0 264ft 0kts
25-Sep-18 11:11 34.891428 -120.453595 0 264ft 0kts
25-Sep-18 11:12 34.891428 -120.453595 0 264ft 0kts
25-Sep-18 11:13 34.891428 -120.453595 0 264ft 0kts
25-Sep-18 11:14 34.891428 -120.453595 0 264ft 0kts
25-Sep-18 11:15 34.891428 -120.453595 0 264ft 0kts
25-Sep-18 11:16 34.891428 -120.453595 0 264ft 0kts
25-Sep-18 11:17 34.892027 -120.453672 347 265ft 7kts
25-Sep-18 11:18 34.891727 -120.451431 90 264ft 16kts
25-Sep-18 11:19 34.892018 -120.446517 44 264ft 2kts
25-Sep-18 11:20 34.892020 -120.446514 44 264ft 0kts
25-Sep-18 11:21 34.899117 -120.453438 313 268ft 104kts
25-Sep-18 11:22 34.929074 -120.465180 32 1662ft 147kts
25-Sep-18 11:23 34.938633 -120.418682 108 3334ft 159kts
25-Sep-18 11:24 34.922972 -120.366390 112 5008ft 168kts
25-Sep-18 11:25 34.897909 -120.320776 151 6647ft 169kts
25-Sep-18 11:26 34.855286 -120.295023 154 8293ft 175kts
25-Sep-18 11:27 34.811236 -120.268425 142 9864ft 180kts
25-Sep-18 11:28 34.788765 -120.216110 112 10981ft 195kts
25-Sep-18 11:29 34.766910 -120.148451 111 11001ft 233kts
25-Sep-18 11:30 34.742321 -120.071305 111 10995ft 254kts
25-Sep-18 11:31 34.716332 -119.989844 111 10991ft 261kts
25-Sep-18 11:32 34.690440 -119.908896 111 10987ft 263kts
25-Sep-18 11:33 34.668587 -119.840148 111 10985ft 263kts
25-Sep-18 11:34 34.637611 -119.743284 111 10981ft 264kts
25-Sep-18 11:35 34.610962 -119.660632 111 10981ft 264kts
25-Sep-18 11:36 34.588691 -119.591751 111 10981ft 264kts
25-Sep-18 11:37 34.561838 -119.508901 111 10981ft 264kts
25-Sep-18 11:38 34.534956 -119.426409 111 10977ft 264kts
25-Sep-18 11:39 34.503631 -119.330125 111 10974ft 264kts
25-Sep-18 11:40 34.481262 -119.261674 111 10972ft 264kts
25-Sep-18 11:41 34.454169 -119.179045 111 10968ft 264kts
25-Sep-18 11:42 34.427285 -119.097225 111 10966ft 264kts
25-Sep-18 11:43 34.400050 -119.014557 111 10963ft 264kts
25-Sep-18 11:44 34.373016 -118.932704 111 10963ft 263kts
25-Sep-18 11:45 34.341359 -118.837658 112 11004ft 262kts
25-Sep-18 11:46 34.318317 -118.769749 113 11007ft 262kts
25-Sep-18 11:47 34.290627 -118.688755 113 11008ft 262kts
25-Sep-18 11:48 34.262842 -118.607697 113 11009ft 262kts
25-Sep-18 11:49 34.235050 -118.526823 113 11009ft 262kts
25-Sep-18 11:50 34.208453 -118.444367 110 10275ft 266kts
25-Sep-18 11:51 34.183525 -118.361532 110 8887ft 262kts
25-Sep-18 11:52 34.158771 -118.280189 110 7485ft 256kts
25-Sep-18 11:53 34.134722 -118.201577 110 6993ft 246kts
25-Sep-18 11:54 34.111366 -118.124428 109 6988ft 245kts
25-Sep-18 11:55 34.087233 -118.047891 109 6996ft 245kts
25-Sep-18 11:56 34.082801 -117.966956 92 7055ft 243kts
25-Sep-18 11:57 34.079835 -117.885215 91 7031ft 244kts
25-Sep-18 11:58 34.077948 -117.803742 91 7011ft 244kts
25-Sep-18 11:59 34.078145 -117.721984 79 7013ft 243kts
25-Sep-18 12:00 34.085772 -117.641298 86 7012ft 241kts
25-Sep-18 12:01 34.090310 -117.560422 87 7018ft 242kts
25-Sep-18 12:02 34.094302 -117.480814 85 7020ft 240kts
25-Sep-18 12:03 34.098422 -117.406593 85 6989ft 199kts
25-Sep-18 12:04 34.102000 -117.342158 85 5736ft 190kts
25-Sep-18 12:05 34.104922 -117.279188 94 4319ft 187kts
25-Sep-18 12:06 34.070334 -117.245048 188 4204ft 175kts
25-Sep-18 12:07 34.043626 -117.286117 273 4209ft 167kts
25-Sep-18 12:08 34.052592 -117.340962 277 4210ft 168kts
25-Sep-18 12:09 34.055062 -117.394939 271 3943ft 149kts
25-Sep-18 12:10 34.055304 -117.443916 270 3233ft 146kts
25-Sep-18 12:11 34.055260 -117.493213 270 2435ft 143kts
25-Sep-18 12:12 34.054824 -117.535451 268 1733ft 109kts
25-Sep-18 12:13 34.054890 -117.571667 269 1178ft 106kts
25-Sep-18 12:14 34.054837 -117.592730 256 947ft 16kts
25-Sep-18 12:15 34.054057 -117.594246 232 947ft 4kts
25-Sep-18 12:16 34.053821 -117.600065 270 947ft 21kts
25-Sep-18 12:17 34.053833 -117.604937 269 947ft 18kts
25-Sep-18 12:18 34.053256 -117.609426 184 947ft 0kts
25-Sep-18 12:19 34.052749 -117.612371 205 947ft 14kts
25-Sep-18 12:20 34.052100 -117.612717 266 947ft 0kts
25-Sep-18 12:21 34.052100 -117.612717 266 946ft 0kts
25-Sep-18 12:22 34.052100 -117.612717 266 946ft 0kts
25-Sep-18 12:23 34.052100 -117.612717 266 946ft 0kts
25-Sep-18 12:24 34.052100 -117.612717 266 946ft 0kts
25-Sep-18 12:25 34.052100 -117.612717 266 946ft 0kts
25-Sep-18 12:26 34.052100 -117.612717 266 946ft 0kts
25-Sep-18 12:27 34.052100 -117.612717 266 946ft 0kts
25-Sep-18 12:28 34.052100 -117.612717 266 946ft 0kts

Navigation Log

Ident Type
Flight plan parsing failed, navigation log unavailable